Time;durP1;ratioP1;P1;durP2;ratioP2;P2;SDS_P1;SDS_P2;PMS_P1;PMS_P2;Temp;Humidity;BMP_temperature;BMP_pressure;BME280_temperature;BME280_humidity;BME280_pressure;Samples;Min_cycle;Max_cycle;Signal;HPM_P1;HPM_P2
2022/01/25 00:08:38;;;;;;;3.03;2.72;;;;;;;;;;5138983;27;20243;-64
2022/01/25 00:25:07;;;;;;;3.03;2.40;;;;;;;;;;5139140;27;20196;-63
2022/01/25 00:30:42;;;;;;;2.88;2.58;;;;;;;;;;5118395;28;20198;-63
2022/01/25 00:33:10;;;;;;;2.60;2.40;;;;;;;;;;5120731;27;20541;-63
2022/01/25 00:35:37;;;;;;;2.40;2.20;;;;;;;;;;5138881;27;20206;-63
2022/01/25 00:38:04;;;;;;;2.65;2.45;;;;;;;;;;5124774;27;20194;-63
2022/01/25 00:40:32;;;;;;;2.67;2.47;;;;;;;;;;5139180;27;20241;-63
2022/01/25 00:43:01;;;;;;;2.70;2.50;;;;;;;;;;5137250;27;20198;-63
2022/01/25 00:45:29;;;;;;;2.80;2.60;;;;;;;;;;5119394;27;20265;-63
2022/01/25 00:47:57;;;;;;;2.60;2.40;;;;;;;;;;5102726;27;20202;-63
2022/01/25 00:50:31;;;;;;;2.60;2.40;;;;;;;;;;5118234;28;20221;-63
2022/01/25 00:55:43;;;;;;;2.85;2.65;;;;;;;;;;5118197;28;20198;-63
2022/01/25 00:58:12;;;;;;;2.58;2.38;;;;;;;;;;5119969;27;20713;-63
2022/01/25 01:00:39;;;;;;;2.70;2.50;;;;;;;;;;5138798;27;20202;-63
2022/01/25 01:03:07;;;;;;;2.25;2.10;;;;;;;;;;5138076;27;20194;-63
2022/01/25 01:05:34;;;;;;;2.55;2.35;;;;;;;;;;5127738;27;20218;-63
2022/01/25 01:08:01;;;;;;;2.55;2.35;;;;;;;;;;5122870;27;20276;-63
2022/01/25 01:10:29;;;;;;;2.78;2.58;;;;;;;;;;5138084;27;20208;-63
2022/01/25 01:15:54;;;;;;;2.47;2.28;;;;;;;;;;5129777;27;20246;-63
2022/01/25 01:29:46;;;;;;;2.47;2.28;;;;;;;;;;5121401;27;20649;-63
2022/01/25 01:32:36;;;;;;;2.40;2.25;;;;;;;;;;5136012;27;20198;-63
2022/01/25 01:35:38;;;;;;;2.40;2.20;;;;;;;;;;5116855;28;20514;-63
2022/01/25 01:38:27;;;;;;;2.50;2.28;;;;;;;;;;5122409;27;20190;-62
2022/01/25 01:41:20;;;;;;;2.78;2.58;;;;;;;;;;5117789;28;20290;-63
2022/01/25 01:43:53;;;;;;;2.58;2.38;;;;;;;;;;5116847;28;20209;-63
2022/01/25 01:46:31;;;;;;;2.50;2.30;;;;;;;;;;5117059;28;20233;-63
2022/01/25 01:49:02;;;;;;;2.50;2.30;;;;;;;;;;5116997;28;20293;-63
2022/01/25 01:51:33;;;;;;;2.22;2.10;;;;;;;;;;5117451;28;20198;-63
2022/01/25 01:54:01;;;;;;;2.33;2.13;;;;;;;;;;5116806;28;20202;-63
2022/01/25 01:56:28;;;;;;;2.42;2.22;;;;;;;;;;5117298;28;20582;-63
2022/01/25 01:58:57;;;;;;;2.20;2.10;;;;;;;;;;5116972;28;20206;-63
2022/01/25 02:01:25;;;;;;;2.33;2.17;;;;;;;;;;5115928;28;20206;-63
2022/01/25 02:03:53;;;;;;;2.10;2.00;;;;;;;;;;5116878;28;20199;-63
2022/01/25 02:06:22;;;;;;;2.30;2.10;;;;;;;;;;5116380;28;20223;-64
2022/01/25 02:08:49;;;;;;;2.28;2.08;;;;;;;;;;5117139;28;20226;-63
2022/01/25 02:11:17;;;;;;;2.20;2.00;;;;;;;;;;5117617;28;20203;-63
2022/01/25 02:13:44;;;;;;;2.28;2.13;;;;;;;;;;5116867;28;20513;-63
2022/01/25 02:16:20;;;;;;;2.22;2.13;;;;;;;;;;5117224;28;20465;-63
2022/01/25 02:24:18;;;;;;;2.40;2.20;;;;;;;;;;5116563;28;20531;-63
2022/01/25 02:26:46;;;;;;;2.35;2.22;;;;;;;;;;5117433;28;20230;-63
2022/01/25 02:29:13;;;;;;;2.00;1.90;;;;;;;;;;5117120;28;20476;-64
2022/01/25 02:31:41;;;;;;;2.38;2.17;;;;;;;;;;5116696;28;20199;-63
2022/01/25 02:34:08;;;;;;;2.35;2.20;;;;;;;;;;5115817;28;20495;-63
2022/01/25 02:36:37;;;;;;;2.35;2.17;;;;;;;;;;5116747;28;20195;-63
2022/01/25 02:39:04;;;;;;;1.80;1.70;;;;;;;;;;5123505;27;20233;-64
2022/01/25 02:41:32;;;;;;;2.30;2.20;;;;;;;;;;5137336;27;20210;-63
2022/01/25 02:44:00;;;;;;;2.28;2.15;;;;;;;;;;5140095;27;20202;-63
2022/01/25 02:49:13;;;;;;;2.40;2.20;;;;;;;;;;5120259;27;20194;-63
2022/01/25 02:51:43;;;;;;;2.17;2.05;;;;;;;;;;5120601;28;20213;-62
2022/01/25 02:54:11;;;;;;;2.45;2.25;;;;;;;;;;5111414;28;20199;-63
2022/01/25 02:56:38;;;;;;;2.30;2.10;;;;;;;;;;5121293;28;20199;-63
2022/01/25 02:59:07;;;;;;;2.55;2.35;;;;;;;;;;5136574;27;20612;-63
2022/01/25 03:01:35;;;;;;;2.20;2.10;;;;;;;;;;5121001;28;20207;-62
2022/01/25 03:04:02;;;;;;;2.13;2.03;;;;;;;;;;5121018;28;20199;-63
2022/01/25 03:06:29;;;;;;;2.30;2.20;;;;;;;;;;5120937;28;20223;-63
2022/01/25 03:08:58;;;;;;;2.50;2.30;;;;;;;;;;5132200;27;20198;-63
2022/01/25 03:11:26;;;;;;;2.20;1.95;;;;;;;;;;5140687;27;20584;-63
2022/01/25 03:13:55;;;;;;;2.10;2.00;;;;;;;;;;5140117;27;20477;-63
2022/01/25 03:16:30;;;;;;;2.50;2.30;;;;;;;;;;5140986;27;20293;-63
2022/01/25 03:19:00;;;;;;;2.17;1.98;;;;;;;;;;5139282;27;20197;-63
2022/01/25 03:21:37;;;;;;;2.40;2.20;;;;;;;;;;5141110;27;20230;-63
2022/01/25 03:24:07;;;;;;;2.40;2.15;;;;;;;;;;5140515;27;20288;-63
2022/01/25 03:26:35;;;;;;;2.22;2.03;;;;;;;;;;5140266;27;20233;-63
2022/01/25 03:29:03;;;;;;;2.30;1.75;;;;;;;;;;5140028;27;20202;-63
2022/01/25 03:31:31;;;;;;;2.55;2.08;;;;;;;;;;5120513;27;20199;-63
2022/01/25 03:33:58;;;;;;;2.20;2.10;;;;;;;;;;5130058;27;20206;-63
2022/01/25 03:36:26;;;;;;;3.50;2.55;;;;;;;;;;5127458;27;20225;-63
2022/01/25 03:38:53;;;;;;;2.30;2.05;;;;;;;;;;5131947;27;20227;-63
2022/01/25 03:41:23;;;;;;;2.05;1.95;;;;;;;;;;5140827;27;20217;-63
2022/01/25 03:43:54;;;;;;;2.20;2.00;;;;;;;;;;5125698;27;20522;-63
2022/01/25 03:46:28;;;;;;;2.22;2.13;;;;;;;;;;5119915;28;20222;-63
2022/01/25 03:51:40;;;;;;;2.20;2.00;;;;;;;;;;5119343;27;20286;-63
2022/01/25 03:54:08;;;;;;;2.15;2.05;;;;;;;;;;5119094;28;20199;-63
2022/01/25 03:56:37;;;;;;;1.90;1.80;;;;;;;;;;5119545;28;20226;-63
2022/01/25 03:59:05;;;;;;;2.00;1.90;;;;;;;;;;5135968;27;20198;-63
2022/01/25 04:01:33;;;;;;;2.00;1.90;;;;;;;;;;5125367;27;20721;-63
2022/01/25 04:04:03;;;;;;;1.90;1.80;;;;;;;;;;5134984;27;20616;-63
2022/01/25 04:06:32;;;;;;;1.92;1.83;;;;;;;;;;5139553;27;20320;-63
2022/01/25 04:09:00;;;;;;;2.13;2.03;;;;;;;;;;5127251;27;20198;-63
2022/01/25 04:11:27;;;;;;;1.83;1.73;;;;;;;;;;5118944;28;20200;-63
2022/01/25 04:13:57;;;;;;;1.90;1.80;;;;;;;;;;5119012;28;20203;-63
2022/01/25 04:16:29;;;;;;;1.80;1.70;;;;;;;;;;5119193;28;20228;-63
2022/01/25 04:19:00;;;;;;;1.98;1.88;;;;;;;;;;5118800;27;20230;-63
2022/01/25 04:21:45;;;;;;;1.75;1.65;;;;;;;;;;5119900;27;20702;-63
2022/01/25 04:26:59;;;;;;;1.88;1.77;;;;;;;;;;5118879;28;20505;-64
2022/01/25 04:29:28;;;;;;;1.85;1.73;;;;;;;;;;5135418;27;20248;-63
2022/01/25 04:31:56;;;;;;;2.03;1.92;;;;;;;;;;5125038;27;20263;-63
2022/01/25 04:34:43;;;;;;;1.90;1.80;;;;;;;;;;5122632;27;20268;-63
2022/01/25 04:53:50;;;;;;;2.20;2.00;;;;;;;;;;5136841;27;20262;-63
2022/01/25 04:56:23;;;;;;;1.83;1.70;;;;;;;;;;5138275;27;20198;-63
2022/01/25 04:58:57;;;;;;;1.92;1.80;;;;;;;;;;5138027;27;20210;-63
2022/01/25 05:01:26;;;;;;;1.85;1.75;;;;;;;;;;5138580;27;20206;-63
2022/01/25 05:03:59;;;;;;;2.00;1.90;;;;;;;;;;5137746;27;20596;-63
2022/01/25 05:06:29;;;;;;;1.83;1.73;;;;;;;;;;5120409;27;20264;-63
2022/01/25 05:09:06;;;;;;;2.20;2.00;;;;;;;;;;5137554;27;20206;-63
2022/01/25 05:11:35;;;;;;;2.10;1.90;;;;;;;;;;5138182;27;20549;-63
2022/01/25 05:14:16;;;;;;;1.73;1.63;;;;;;;;;;5137883;27;20209;-63
2022/01/25 05:16:50;;;;;;;1.83;1.73;;;;;;;;;;5122323;27;20298;-63
2022/01/25 05:19:35;;;;;;;1.73;1.63;;;;;;;;;;5137357;27;20288;-63
2022/01/25 05:22:06;;;;;;;1.90;1.80;;;;;;;;;;5137942;27;20210;-63
2022/01/25 05:24:34;;;;;;;1.85;1.75;;;;;;;;;;5138139;27;20449;-63
2022/01/25 05:27:01;;;;;;;1.83;1.73;;;;;;;;;;5137252;27;20237;-63
2022/01/25 05:29:29;;;;;;;1.95;1.80;;;;;;;;;;5128561;27;20647;-63
2022/01/25 05:31:57;;;;;;;1.92;1.83;;;;;;;;;;5137589;27;20205;-63
2022/01/25 05:34:25;;;;;;;1.60;1.50;;;;;;;;;;5136485;27;20203;-63
2022/01/25 05:36:52;;;;;;;2.08;1.90;;;;;;;;;;5137194;27;20562;-63
2022/01/25 05:39:24;;;;;;;1.77;1.67;;;;;;;;;;5125288;27;20241;-62
2022/01/25 05:41:57;;;;;;;1.90;1.80;;;;;;;;;;5137009;27;20209;-63
2022/01/25 05:44:37;;;;;;;1.98;1.80;;;;;;;;;;5136134;27;20202;-63
2022/01/25 05:47:08;;;;;;;1.65;1.55;;;;;;;;;;5136773;28;20238;-63
2022/01/25 05:49:36;;;;;;;2.20;2.00;;;;;;;;;;5136401;28;20526;-63
2022/01/25 05:52:03;;;;;;;1.85;1.65;;;;;;;;;;5136667;28;20210;-63
2022/01/25 05:54:31;;;;;;;1.98;1.88;;;;;;;;;;5128111;28;20204;-63
2022/01/25 05:56:58;;;;;;;2.00;1.80;;;;;;;;;;5136366;28;20198;-63
2022/01/25 05:59:26;;;;;;;1.60;1.50;;;;;;;;;;5135190;28;20202;-63
2022/01/25 06:01:53;;;;;;;1.83;1.73;;;;;;;;;;5135542;28;20586;-63
2022/01/25 06:04:23;;;;;;;1.80;1.70;;;;;;;;;;5133260;28;20771;-63
2022/01/25 06:06:51;;;;;;;1.85;1.63;;;;;;;;;;5129651;28;20233;-63
2022/01/25 06:09:18;;;;;;;1.95;1.80;;;;;;;;;;5123675;28;20198;-63
2022/01/25 06:11:46;;;;;;;1.70;1.60;;;;;;;;;;5133544;28;20205;-64
2022/01/25 06:14:13;;;;;;;1.90;1.80;;;;;;;;;;5134106;28;20225;-63
2022/01/25 06:16:40;;;;;;;1.90;1.80;;;;;;;;;;5124638;27;20205;-63
2022/01/25 06:19:07;;;;;;;2.08;1.88;;;;;;;;;;5137770;27;20225;-63
2022/01/25 06:21:37;;;;;;;1.63;1.52;;;;;;;;;;5140220;27;20272;-63
2022/01/25 06:24:04;;;;;;;1.63;1.52;;;;;;;;;;5131600;27;20199;-63
2022/01/25 06:26:31;;;;;;;1.92;1.83;;;;;;;;;;5129722;27;20210;-63
2022/01/25 06:29:00;;;;;;;2.10;1.90;;;;;;;;;;5137989;27;20225;-63
2022/01/25 06:31:30;;;;;;;1.58;1.48;;;;;;;;;;5138064;27;20233;-64
2022/01/25 06:33:58;;;;;;;2.00;1.90;;;;;;;;;;5133368;27;20195;-63
2022/01/25 06:36:25;;;;;;;1.67;1.58;;;;;;;;;;5128571;27;20210;-63
2022/01/25 06:38:54;;;;;;;1.77;1.67;;;;;;;;;;5124880;27;20231;-63
2022/01/25 06:41:21;;;;;;;1.95;1.85;;;;;;;;;;5136265;27;20191;-63
2022/01/25 06:43:48;;;;;;;1.80;1.70;;;;;;;;;;5138198;27;20516;-64
2022/01/25 06:46:16;;;;;;;1.50;1.40;;;;;;;;;;5138552;27;20209;-63
2022/01/25 06:48:43;;;;;;;2.00;1.90;;;;;;;;;;5138625;27;20218;-63
2022/01/25 06:51:10;;;;;;;1.77;1.67;;;;;;;;;;5138038;27;20198;-63
2022/01/25 06:53:38;;;;;;;1.48;1.38;;;;;;;;;;5138918;27;20202;-63
2022/01/25 06:56:06;;;;;;;2.25;1.40;;;;;;;;;;5139063;27;20202;-63
2022/01/25 06:58:34;;;;;;;2.40;1.70;;;;;;;;;;5138821;27;20191;-62
2022/01/25 07:01:02;;;;;;;1.75;1.52;;;;;;;;;;5138294;27;20206;-63
2022/01/25 07:03:29;;;;;;;1.75;1.65;;;;;;;;;;5138373;27;20198;-63
2022/01/25 07:05:57;;;;;;;1.80;1.70;;;;;;;;;;5138418;27;20198;-63
2022/01/25 07:08:24;;;;;;;2.17;1.90;;;;;;;;;;5128665;27;20211;-63
2022/01/25 07:10:51;;;;;;;1.83;1.73;;;;;;;;;;5132915;27;20206;-63
2022/01/25 07:13:20;;;;;;;2.30;1.80;;;;;;;;;;5138906;27;20491;-63
2022/01/25 07:15:48;;;;;;;1.67;1.58;;;;;;;;;;5138809;27;20198;-63
2022/01/25 07:18:16;;;;;;;2.38;1.70;;;;;;;;;;5129903;27;20494;-62
2022/01/25 07:20:43;;;;;;;2.00;1.80;;;;;;;;;;5130902;27;20275;-63
2022/01/25 07:23:10;;;;;;;1.63;1.50;;;;;;;;;;5138139;27;20195;-63
2022/01/25 07:25:38;;;;;;;2.22;1.75;;;;;;;;;;5139044;27;20229;-63
2022/01/25 07:28:05;;;;;;;2.08;1.70;;;;;;;;;;5137429;27;20210;-63
2022/01/25 07:30:35;;;;;;;2.30;2.10;;;;;;;;;;5137712;27;20623;-64
2022/01/25 07:33:05;;;;;;;7.07;4.07;;;;;;;;;;5129671;27;20492;-63
2022/01/25 07:35:33;;;;;;;3.90;3.50;;;;;;;;;;5138506;27;20458;-63
2022/01/25 07:38:00;;;;;;;5.00;3.72;;;;;;;;;;5130195;27;20209;-63
2022/01/25 07:40:28;;;;;;;4.53;3.20;;;;;;;;;;5128221;27;20230;-63
2022/01/25 07:42:55;;;;;;;4.07;3.67;;;;;;;;;;5137425;27;20186;-63
2022/01/25 07:45:24;;;;;;;5.40;3.55;;;;;;;;;;5138942;27;20198;-63
2022/01/25 07:47:52;;;;;;;4.32;3.30;;;;;;;;;;5130909;27;20211;-63
2022/01/25 07:50:20;;;;;;;4.00;3.60;;;;;;;;;;5137371;27;20217;-62
2022/01/25 07:52:47;;;;;;;4.75;3.83;;;;;;;;;;5138060;27;20198;-63
2022/01/25 07:55:15;;;;;;;6.03;3.33;;;;;;;;;;5137788;27;20206;-62
2022/01/25 07:57:43;;;;;;;3.65;3.20;;;;;;;;;;5136240;27;20195;-62
2022/01/25 08:00:11;;;;;;;3.63;3.22;;;;;;;;;;5138148;27;20504;-63
2022/01/25 08:02:39;;;;;;;4.28;3.22;;;;;;;;;;5137536;27;20483;-63
2022/01/25 08:05:08;;;;;;;4.82;3.10;;;;;;;;;;5137835;27;20213;-63
2022/01/25 08:07:35;;;;;;;4.57;3.03;;;;;;;;;;5134472;27;20223;-63
2022/01/25 08:10:03;;;;;;;3.92;3.10;;;;;;;;;;5124761;27;20193;-63
2022/01/25 08:12:30;;;;;;;4.25;3.10;;;;;;;;;;5122800;27;20865;-63
2022/01/25 08:14:59;;;;;;;3.75;3.38;;;;;;;;;;5137086;27;20194;-62
2022/01/25 08:17:26;;;;;;;3.47;3.13;;;;;;;;;;5136314;27;20206;-63
2022/01/25 08:19:53;;;;;;;4.55;2.83;;;;;;;;;;5131932;27;20207;-62
2022/01/25 08:22:24;;;;;;;3.17;2.88;;;;;;;;;;5126322;27;20229;-62
2022/01/25 08:24:51;;;;;;;3.30;2.97;;;;;;;;;;5137219;27;20255;-63
2022/01/25 08:27:20;;;;;;;3.60;3.20;;;;;;;;;;5136871;27;20197;-63
2022/01/25 08:29:47;;;;;;;3.30;3.00;;;;;;;;;;5136732;27;20585;-63
2022/01/25 08:32:15;;;;;;;3.95;3.03;;;;;;;;;;5137439;27;20623;-63
2022/01/25 08:34:42;;;;;;;4.00;3.08;;;;;;;;;;5124875;27;20205;-63
2022/01/25 08:37:10;;;;;;;3.22;2.92;;;;;;;;;;5137582;27;20201;-63
2022/01/25 08:39:38;;;;;;;5.18;4.03;;;;;;;;;;5135757;27;20307;-63
2022/01/25 08:42:06;;;;;;;6.15;5.60;;;;;;;;;;5135967;27;20214;-63
2022/01/25 08:44:34;;;;;;;6.65;5.55;;;;;;;;;;5136235;27;20199;-63
2022/01/25 08:47:01;;;;;;;5.18;4.68;;;;;;;;;;5137349;27;20214;-63
2022/01/25 08:49:30;;;;;;;5.03;4.50;;;;;;;;;;5134601;27;20225;-63
2022/01/25 08:51:57;;;;;;;5.47;4.60;;;;;;;;;;5136843;27;20494;-63
2022/01/25 08:54:25;;;;;;;4.45;4.05;;;;;;;;;;5126491;27;20208;-64
2022/01/25 08:56:54;;;;;;;4.70;4.30;;;;;;;;;;5136007;27;20194;-63
2022/01/25 08:59:22;;;;;;;4.65;4.25;;;;;;;;;;5135785;27;20201;-63
2022/01/25 09:01:49;;;;;;;4.57;4.18;;;;;;;;;;5136688;27;20202;-62
2022/01/25 09:04:17;;;;;;;5.63;4.13;;;;;;;;;;5119215;27;20199;-63
2022/01/25 09:06:44;;;;;;;3.78;3.40;;;;;;;;;;5136129;27;20210;-62
2022/01/25 09:09:13;;;;;;;4.85;3.83;;;;;;;;;;5135466;27;20218;-63
2022/01/25 09:11:41;;;;;;;3.80;3.50;;;;;;;;;;5126877;27;20490;-63
2022/01/25 09:14:13;;;;;;;3.92;3.45;;;;;;;;;;5129996;27;20186;-63
2022/01/25 09:16:41;;;;;;;3.85;3.30;;;;;;;;;;5134878;27;20600;-63
2022/01/25 09:19:08;;;;;;;3.83;3.42;;;;;;;;;;5133074;27;20485;-63
2022/01/25 09:21:36;;;;;;;3.92;3.50;;;;;;;;;;5133857;27;20198;-63
2022/01/25 09:24:03;;;;;;;7.43;3.53;;;;;;;;;;5117726;27;20206;-63
2022/01/25 09:26:30;;;;;;;3.88;3.10;;;;;;;;;;5134460;27;20202;-62
2022/01/25 09:28:58;;;;;;;3.75;3.30;;;;;;;;;;5134760;27;20213;-63
2022/01/25 09:31:27;;;;;;;6.32;3.40;;;;;;;;;;5135042;27;20302;-63
2022/01/25 09:33:55;;;;;;;18.42;14.80;;;;;;;;;;5129934;27;20569;-62
2022/01/25 09:36:24;;;;;;;12.18;10.20;;;;;;;;;;5124278;27;20856;-63
2022/01/25 09:38:51;;;;;;;11.60;8.65;;;;;;;;;;5135146;27;20214;-63
2022/01/25 09:41:19;;;;;;;17.30;12.38;;;;;;;;;;5135422;27;20611;-64
2022/01/25 09:43:46;;;;;;;16.42;10.38;;;;;;;;;;5121029;28;20206;-63
2022/01/25 09:46:13;;;;;;;13.55;9.60;;;;;;;;;;5136284;27;20199;-63
2022/01/25 09:48:42;;;;;;;12.10;8.90;;;;;;;;;;5133701;28;20510;-63
2022/01/25 09:51:10;;;;;;;12.80;9.30;;;;;;;;;;5135859;27;20476;-63
2022/01/25 09:53:39;;;;;;;11.32;9.10;;;;;;;;;;5135499;28;20209;-63
2022/01/25 09:56:06;;;;;;;11.45;8.00;;;;;;;;;;5135985;28;20624;-63
2022/01/25 09:58:34;;;;;;;9.98;8.30;;;;;;;;;;5135396;28;20195;-63
2022/01/25 10:01:01;;;;;;;8.85;7.65;;;;;;;;;;5135901;28;20198;-62
2022/01/25 10:03:34;;;;;;;10.25;7.85;;;;;;;;;;5126292;28;20207;-62
2022/01/25 10:06:03;;;;;;;10.52;7.90;;;;;;;;;;5134485;28;20213;-63
2022/01/25 10:08:32;;;;;;;9.35;7.47;;;;;;;;;;5125839;27;20233;-62
2022/01/25 10:11:00;;;;;;;10.40;8.05;;;;;;;;;;5130767;28;20202;-63
2022/01/25 10:13:30;;;;;;;8.43;6.72;;;;;;;;;;5135234;27;20194;-63
2022/01/25 10:16:01;;;;;;;8.27;6.32;;;;;;;;;;5135398;28;20198;-63
2022/01/25 10:18:39;;;;;;;17.20;13.02;;;;;;;;;;5126172;28;20221;-63
2022/01/25 10:21:11;;;;;;;11.25;9.75;;;;;;;;;;5135624;28;20214;-63
2022/01/25 10:23:40;;;;;;;11.57;9.02;;;;;;;;;;5135080;28;20585;-63
2022/01/25 10:26:08;;;;;;;10.77;8.77;;;;;;;;;;5135464;28;20209;-64
2022/01/25 10:28:36;;;;;;;11.35;9.00;;;;;;;;;;5134996;28;20330;-63
2022/01/25 10:31:05;;;;;;;10.38;7.90;;;;;;;;;;5133599;28;20198;-63
2022/01/25 10:33:35;;;;;;;11.00;8.15;;;;;;;;;;5130577;28;20191;-63
2022/01/25 10:36:10;;;;;;;10.32;7.55;;;;;;;;;;5129955;28;20197;-62
2022/01/25 10:38:39;;;;;;;8.45;7.55;;;;;;;;;;5133551;28;20717;-63
2022/01/25 10:41:08;;;;;;;8.65;6.88;;;;;;;;;;5134769;28;20202;-63
2022/01/25 10:43:35;;;;;;;7.97;6.63;;;;;;;;;;5125718;28;20199;-63
2022/01/25 10:46:10;;;;;;;8.60;7.22;;;;;;;;;;5134319;28;20210;-63
2022/01/25 10:48:38;;;;;;;9.13;6.93;;;;;;;;;;5132710;28;20224;-63
2022/01/25 10:51:07;;;;;;;9.45;6.53;;;;;;;;;;5134520;28;20528;-63
2022/01/25 10:53:34;;;;;;;7.95;6.38;;;;;;;;;;5126165;28;20198;-63
2022/01/25 10:56:04;;;;;;;8.55;6.50;;;;;;;;;;5134002;28;20236;-63
2022/01/25 10:58:32;;;;;;;8.05;6.40;;;;;;;;;;5134216;28;20199;-63
2022/01/25 11:00:59;;;;;;;7.32;5.90;;;;;;;;;;5134211;28;20199;-63
2022/01/25 11:03:28;;;;;;;6.45;5.72;;;;;;;;;;5132930;27;20198;-63
2022/01/25 11:05:56;;;;;;;6.97;5.85;;;;;;;;;;5137110;27;20202;-63
2022/01/25 11:08:24;;;;;;;7.80;5.53;;;;;;;;;;5127162;27;20253;-63
2022/01/25 11:10:56;;;;;;;6.00;5.40;;;;;;;;;;5136552;27;20209;-63
2022/01/25 11:13:36;;;;;;;6.32;5.43;;;;;;;;;;5138029;27;20535;-63
2022/01/25 11:16:05;;;;;;;5.68;4.97;;;;;;;;;;5123954;27;20195;-63
2022/01/25 11:18:32;;;;;;;5.63;4.90;;;;;;;;;;5137365;27;20206;-63
2022/01/25 11:21:01;;;;;;;5.57;5.07;;;;;;;;;;5138051;27;20209;-63
2022/01/25 11:23:29;;;;;;;5.38;4.63;;;;;;;;;;5138945;27;20491;-63
2022/01/25 11:25:57;;;;;;;5.75;4.70;;;;;;;;;;5138373;27;20293;-63
2022/01/25 11:28:27;;;;;;;5.30;4.38;;;;;;;;;;5137233;27;20198;-63
2022/01/25 11:30:54;;;;;;;5.25;4.05;;;;;;;;;;5137328;27;20597;-63
2022/01/25 11:33:21;;;;;;;5.18;4.47;;;;;;;;;;5137500;27;20195;-62
2022/01/25 11:35:50;;;;;;;4.95;4.45;;;;;;;;;;5129316;27;20195;-63
2022/01/25 11:38:27;;;;;;;4.75;4.25;;;;;;;;;;5133892;27;20234;-63
2022/01/25 11:40:56;;;;;;;4.85;4.00;;;;;;;;;;5124363;27;20642;-63
2022/01/25 11:43:24;;;;;;;4.95;3.72;;;;;;;;;;5136916;27;20786;-63
2022/01/25 11:46:02;;;;;;;4.90;3.85;;;;;;;;;;5135927;27;20199;-63
2022/01/25 11:48:36;;;;;;;4.22;3.83;;;;;;;;;;5131457;27;20312;-63
2022/01/25 11:51:04;;;;;;;4.22;3.83;;;;;;;;;;5132444;27;20208;-63
2022/01/25 11:53:31;;;;;;;4.60;3.85;;;;;;;;;;5134677;27;20190;-63
2022/01/25 11:55:58;;;;;;;3.92;3.53;;;;;;;;;;5126907;27;20198;-62
2022/01/25 11:58:31;;;;;;;3.80;3.38;;;;;;;;;;5135817;27;20198;-63
2022/01/25 12:01:01;;;;;;;3.55;3.25;;;;;;;;;;5137331;27;20276;-63
2022/01/25 12:03:30;;;;;;;3.60;3.30;;;;;;;;;;5127073;27;20240;-63
2022/01/25 12:06:00;;;;;;;4.10;3.20;;;;;;;;;;5121504;27;20199;-63
2022/01/25 12:08:39;;;;;;;3.35;3.03;;;;;;;;;;5121197;27;20241;-63
2022/01/25 12:11:21;;;;;;;3.97;3.58;;;;;;;;;;5133410;27;20209;-63
2022/01/25 12:13:48;;;;;;;3.20;2.90;;;;;;;;;;5136095;27;20198;-63
2022/01/25 12:16:24;;;;;;;3.33;3.03;;;;;;;;;;5136498;27;20214;-62
2022/01/25 12:18:57;;;;;;;3.38;3.08;;;;;;;;;;5136834;27;20198;-63
2022/01/25 12:21:45;;;;;;;3.30;2.97;;;;;;;;;;5127759;27;20705;-63
2022/01/25 12:24:20;;;;;;;3.83;2.75;;;;;;;;;;5129713;27;20226;-63
2022/01/25 12:27:01;;;;;;;3.20;2.90;;;;;;;;;;5137005;27;20212;-63
2022/01/25 12:29:36;;;;;;;3.17;2.88;;;;;;;;;;5127112;27;20828;-63
2022/01/25 12:32:23;;;;;;;3.33;3.00;;;;;;;;;;5136081;27;20208;-63
2022/01/25 12:35:14;;;;;;;2.88;2.60;;;;;;;;;;5135135;27;20529;-63
2022/01/25 12:37:58;;;;;;;3.47;2.92;;;;;;;;;;5111692;27;20256;-63
2022/01/25 12:40:34;;;;;;;3.00;2.70;;;;;;;;;;5136221;27;20230;-63
2022/01/25 12:43:02;;;;;;;2.88;2.67;;;;;;;;;;5128579;27;20198;-63
2022/01/25 12:45:32;;;;;;;2.72;2.53;;;;;;;;;;5126348;27;20205;-63
2022/01/25 12:48:02;;;;;;;2.90;2.60;;;;;;;;;;5123429;27;20195;-63
2022/01/25 12:50:30;;;;;;;2.72;2.53;;;;;;;;;;5134671;27;20218;-63
2022/01/25 12:52:59;;;;;;;2.80;2.60;;;;;;;;;;5135102;27;20607;-63
2022/01/25 12:55:29;;;;;;;2.83;2.63;;;;;;;;;;5134259;27;20186;-63
2022/01/25 12:57:56;;;;;;;2.72;2.53;;;;;;;;;;5135975;27;20198;-63
2022/01/25 13:00:29;;;;;;;2.50;2.20;;;;;;;;;;5136236;27;20756;-63
2022/01/25 13:05:51;;;;;;;2.97;2.67;;;;;;;;;;5130484;27;20562;-64
2022/01/25 13:08:19;;;;;;;2.53;2.33;;;;;;;;;;5130670;27;20198;-64
2022/01/25 13:10:48;;;;;;;2.50;2.30;;;;;;;;;;5116791;27;20199;-63
2022/01/25 13:13:23;;;;;;;2.70;2.50;;;;;;;;;;5130249;28;20194;-65
2022/01/25 13:15:56;;;;;;;2.88;2.47;;;;;;;;;;5129763;27;20205;-64
2022/01/25 13:18:25;;;;;;;2.80;2.50;;;;;;;;;;5129856;27;20275;-63
2022/01/25 13:21:01;;;;;;;2.45;2.25;;;;;;;;;;5130610;27;20228;-64
2022/01/25 13:23:29;;;;;;;4.32;2.55;;;;;;;;;;5131194;27;20221;-63
2022/01/25 13:26:07;;;;;;;2.33;2.13;;;;;;;;;;5130852;27;20229;-64
2022/01/25 13:28:52;;;;;;;4.35;2.20;;;;;;;;;;5131217;27;20190;-64
2022/01/25 13:31:19;;;;;;;2.50;2.30;;;;;;;;;;5132067;27;20545;-64
2022/01/25 13:33:47;;;;;;;2.50;2.30;;;;;;;;;;5130218;27;20297;-64
2022/01/25 13:36:20;;;;;;;2.42;2.22;;;;;;;;;;5130268;27;20501;-65
2022/01/25 13:38:48;;;;;;;3.75;2.30;;;;;;;;;;5130625;27;20203;-64
2022/01/25 13:41:21;;;;;;;2.42;2.22;;;;;;;;;;5131287;27;20716;-64
2022/01/25 13:46:36;;;;;;;2.28;2.08;;;;;;;;;;5129290;28;20604;-64
2022/01/25 13:49:04;;;;;;;2.78;2.30;;;;;;;;;;5130948;27;20263;-66
2022/01/25 13:51:40;;;;;;;2.47;2.10;;;;;;;;;;5130863;27;20198;-63
2022/01/25 13:54:07;;;;;;;2.33;2.08;;;;;;;;;;5131240;27;20224;-65
2022/01/25 13:56:37;;;;;;;3.75;2.15;;;;;;;;;;5130218;27;20592;-65
2022/01/25 13:59:05;;;;;;;2.42;1.90;;;;;;;;;;5130880;27;20210;-65
2022/01/25 14:01:33;;;;;;;2.50;2.30;;;;;;;;;;5129830;27;20230;-65
2022/01/25 14:04:01;;;;;;;2.17;1.98;;;;;;;;;;5129844;27;20230;-65
2022/01/25 14:06:29;;;;;;;2.53;2.33;;;;;;;;;;5127966;27;20485;-65
2022/01/25 14:09:04;;;;;;;2.67;2.20;;;;;;;;;;5126868;27;20191;-65
2022/01/25 14:11:38;;;;;;;2.67;2.17;;;;;;;;;;5128610;27;20592;-65
2022/01/25 14:22:47;;;;;;;2.15;1.98;;;;;;;;;;5113255;28;20193;-65
2022/01/25 14:25:26;;;;;;;2.13;1.90;;;;;;;;;;5113634;28;20223;-65
2022/01/25 14:27:57;;;;;;;2.70;1.70;;;;;;;;;;5114022;28;20588;-65
2022/01/25 14:30:24;;;;;;;2.95;2.08;;;;;;;;;;5113655;28;20530;-64
2022/01/25 14:33:00;;;;;;;3.70;1.80;;;;;;;;;;5114964;28;20222;-62
2022/01/25 14:35:28;;;;;;;4.25;2.45;;;;;;;;;;5114242;28;20491;-64
2022/01/25 14:37:56;;;;;;;2.90;2.25;;;;;;;;;;5114532;28;20206;-64
2022/01/25 14:40:24;;;;;;;2.97;2.08;;;;;;;;;;5116051;27;20593;-63
2022/01/25 14:42:52;;;;;;;2.22;1.80;;;;;;;;;;5116524;28;20187;-64
2022/01/25 14:45:21;;;;;;;2.30;2.10;;;;;;;;;;5114848;28;20214;-63
2022/01/25 14:47:49;;;;;;;2.28;2.08;;;;;;;;;;5113762;28;20465;-64
2022/01/25 14:50:18;;;;;;;2.25;1.83;;;;;;;;;;5115474;28;20225;-64
2022/01/25 14:53:01;;;;;;;2.10;1.90;;;;;;;;;;5113658;28;20486;-64
2022/01/25 14:55:30;;;;;;;2.42;2.15;;;;;;;;;;5114184;28;20504;-64
2022/01/25 14:58:10;;;;;;;2.00;1.80;;;;;;;;;;5114685;28;20223;-64
2022/01/25 15:00:42;;;;;;;2.55;1.80;;;;;;;;;;5115031;28;20262;-64
2022/01/25 15:03:09;;;;;;;2.13;1.92;;;;;;;;;;5114417;28;20195;-64
2022/01/25 15:05:37;;;;;;;1.80;1.70;;;;;;;;;;5115295;28;20238;-64
2022/01/25 15:08:04;;;;;;;3.20;1.90;;;;;;;;;;5116257;28;20619;-64
2022/01/25 15:10:34;;;;;;;1.90;1.80;;;;;;;;;;5116081;28;20569;-64
2022/01/25 15:13:03;;;;;;;2.35;1.98;;;;;;;;;;5116032;28;20306;-64
2022/01/25 15:15:45;;;;;;;1.73;1.63;;;;;;;;;;5114845;28;20203;-64
2022/01/25 15:18:13;;;;;;;2.00;1.80;;;;;;;;;;5114401;28;20191;-64
2022/01/25 15:20:40;;;;;;;2.35;1.75;;;;;;;;;;5114509;28;20206;-64
2022/01/25 15:23:10;;;;;;;1.83;1.63;;;;;;;;;;5114648;28;20195;-64
2022/01/25 15:25:38;;;;;;;1.73;1.63;;;;;;;;;;5114962;28;20495;-64
2022/01/25 15:28:08;;;;;;;2.28;1.73;;;;;;;;;;5111827;28;20203;-64
2022/01/25 15:30:35;;;;;;;1.98;1.58;;;;;;;;;;5113110;28;20203;-64
2022/01/25 15:33:05;;;;;;;1.80;1.70;;;;;;;;;;5113369;28;20191;-64
2022/01/25 15:35:32;;;;;;;2.85;1.90;;;;;;;;;;5113734;28;20205;-64
2022/01/25 15:38:00;;;;;;;1.90;1.80;;;;;;;;;;5113635;28;20353;-63
2022/01/25 15:40:28;;;;;;;1.73;1.63;;;;;;;;;;5114389;28;20632;-64
2022/01/25 15:42:56;;;;;;;2.65;1.70;;;;;;;;;;5113892;28;20487;-64
2022/01/25 15:45:27;;;;;;;1.60;1.40;;;;;;;;;;5112685;28;20558;-62
2022/01/25 15:47:55;;;;;;;1.83;1.73;;;;;;;;;;5113567;28;20578;-63
2022/01/25 15:50:25;;;;;;;1.58;1.45;;;;;;;;;;5113115;28;20195;-64
2022/01/25 15:52:53;;;;;;;2.35;1.80;;;;;;;;;;5096209;28;20191;-64
2022/01/25 15:55:21;;;;;;;1.70;1.60;;;;;;;;;;5113806;28;20217;-62
2022/01/25 15:57:48;;;;;;;2.25;1.42;;;;;;;;;;5113154;28;20364;-64
2022/01/25 16:00:18;;;;;;;2.10;1.85;;;;;;;;;;5113421;28;20195;-64
2022/01/25 16:02:45;;;;;;;1.75;1.58;;;;;;;;;;5096655;28;20199;-64
2022/01/25 16:05:14;;;;;;;2.03;1.50;;;;;;;;;;5113882;28;20241;-65
2022/01/25 16:07:41;;;;;;;2.13;1.65;;;;;;;;;;5112435;28;20191;-64
2022/01/25 16:10:11;;;;;;;1.40;1.30;;;;;;;;;;5113018;28;20298;-64
2022/01/25 16:12:39;;;;;;;1.52;1.42;;;;;;;;;;5114585;28;20301;-64
2022/01/25 16:15:06;;;;;;;1.55;1.42;;;;;;;;;;5115606;28;20505;-63
2022/01/25 16:17:35;;;;;;;1.65;1.50;;;;;;;;;;5115635;28;20202;-64
2022/01/25 16:20:02;;;;;;;1.60;1.50;;;;;;;;;;5116032;28;20203;-65
2022/01/25 16:22:30;;;;;;;1.65;1.55;;;;;;;;;;5115968;28;20586;-64
2022/01/25 16:24:57;;;;;;;1.55;1.45;;;;;;;;;;5115360;28;20218;-64